sensor_id;sensor_type;location;lat;lon;timestamp;temperature;humidity
431;DHT22;202;48.764;9.172;2023-11-21T00:13:25;10.70;54.00
431;DHT22;202;48.764;9.172;2023-11-21T00:15:57;10.60;54.90
431;DHT22;202;48.764;9.172;2023-11-21T00:18:27;10.70;55.00
431;DHT22;202;48.764;9.172;2023-11-21T00:20:57;10.60;53.80
431;DHT22;202;48.764;9.172;2023-11-21T00:23:32;10.60;53.80
431;DHT22;202;48.764;9.172;2023-11-21T02:46:28;10.80;54.70
431;DHT22;202;48.764;9.172;2023-11-21T02:48:57;10.80;54.30
431;DHT22;202;48.764;9.172;2023-11-21T02:51:24;10.70;54.20
431;DHT22;202;48.764;9.172;2023-11-21T02:53:51;10.70;53.90
431;DHT22;202;48.764;9.172;2023-11-21T02:56:18;10.80;54.00
431;DHT22;202;48.764;9.172;2023-11-21T07:49:15;10.00;62.70
431;DHT22;202;48.764;9.172;2023-11-21T07:52:05;10.00;62.50
431;DHT22;202;48.764;9.172;2023-11-21T07:54:40;10.10;61.00
431;DHT22;202;48.764;9.172;2023-11-21T07:57:56;10.20;61.50
431;DHT22;202;48.764;9.172;2023-11-21T08:00:31;10.40;60.10
431;DHT22;202;48.764;9.172;2023-11-21T08:58:32;10.60;62.20
431;DHT22;202;48.764;9.172;2023-11-21T09:01:28;10.80;61.50
431;DHT22;202;48.764;9.172;2023-11-21T09:03:57;11.00;59.10
431;DHT22;202;48.764;9.172;2023-11-21T09:06:24;11.20;59.10
431;DHT22;202;48.764;9.172;2023-11-21T09:08:53;11.30;58.00
431;DHT22;202;48.764;9.172;2023-11-21T09:11:54;11.50;57.30
431;DHT22;202;48.764;9.172;2023-11-21T09:20:57;11.60;55.70
431;DHT22;202;48.764;9.172;2023-11-21T09:21:25;11.40;53.80
431;DHT22;202;48.764;9.172;2023-11-21T09:23:53;11.50;54.80
431;DHT22;202;48.764;9.172;2023-11-21T09:29:24;11.80;54.90
431;DHT22;202;48.764;9.172;2023-11-21T09:56:04;12.10;50.40
431;DHT22;202;48.764;9.172;2023-11-21T09:58:32;12.10;48.80
431;DHT22;202;48.764;9.172;2023-11-21T10:01:01;12.10;48.00
431;DHT22;202;48.764;9.172;2023-11-21T10:03:35;11.90;49.20
431;DHT22;202;48.764;9.172;2023-11-21T10:06:04;12.00;49.40
431;DHT22;202;48.764;9.172;2023-11-21T10:08:35;12.00;49.20
431;DHT22;202;48.764;9.172;2023-11-21T10:11:05;12.00;49.50
431;DHT22;202;48.764;9.172;2023-11-21T10:13:33;12.10;48.40
431;DHT22;202;48.764;9.172;2023-11-21T10:16:05;12.00;48.40
431;DHT22;202;48.764;9.172;2023-11-21T10:18:37;11.90;49.50
431;DHT22;202;48.764;9.172;2023-11-21T10:21:06;12.00;50.60
431;DHT22;202;48.764;9.172;2023-11-21T10:23:34;11.90;51.10
431;DHT22;202;48.764;9.172;2023-11-21T10:26:09;12.00;51.90
431;DHT22;202;48.764;9.172;2023-11-21T10:29:09;12.00;52.70
431;DHT22;202;48.764;9.172;2023-11-21T10:31:43;11.80;52.50
431;DHT22;202;48.764;9.172;2023-11-21T10:34:14;11.70;54.30
431;DHT22;202;48.764;9.172;2023-11-21T10:36:54;11.80;54.50
431;DHT22;202;48.764;9.172;2023-11-21T10:39:59;11.80;54.90
431;DHT22;202;48.764;9.172;2023-11-21T10:42:55;11.80;55.80
431;DHT22;202;48.764;9.172;2023-11-21T10:46:21;11.70;56.50
431;DHT22;202;48.764;9.172;2023-11-21T10:49:07;11.80;57.50
431;DHT22;202;48.764;9.172;2023-11-21T10:51:43;11.70;57.50
431;DHT22;202;48.764;9.172;2023-11-21T10:54:26;11.70;57.80
431;DHT22;202;48.764;9.172;2023-11-21T10:57:14;11.60;56.80
431;DHT22;202;48.764;9.172;2023-11-21T11:03:38;11.70;58.20
431;DHT22;202;48.764;9.172;2023-11-21T11:12:10;11.80;54.00
431;DHT22;202;48.764;9.172;2023-11-21T11:14:55;11.90;55.00
431;DHT22;202;48.764;9.172;2023-11-21T11:24:19;12.00;54.10
431;DHT22;202;48.764;9.172;2023-11-21T11:26:55;12.00;53.50
431;DHT22;202;48.764;9.172;2023-11-21T11:33:20;12.00;53.90
431;DHT22;202;48.764;9.172;2023-11-21T11:36:04;11.90;53.60
431;DHT22;202;48.764;9.172;2023-11-21T11:38:39;11.90;52.40
431;DHT22;202;48.764;9.172;2023-11-21T11:41:42;11.80;54.90
431;DHT22;202;48.764;9.172;2023-11-21T11:44:50;11.90;54.30
431;DHT22;202;48.764;9.172;2023-11-21T11:48:15;11.90;55.00
431;DHT22;202;48.764;9.172;2023-11-21T11:51:18;11.80;55.80
431;DHT22;202;48.764;9.172;2023-11-21T11:54:09;11.80;56.60
431;DHT22;202;48.764;9.172;2023-11-21T12:30:45;12.40;49.10
431;DHT22;202;48.764;9.172;2023-11-21T12:33:14;12.40;49.60
431;DHT22;202;48.764;9.172;2023-11-21T12:35:56;12.50;48.50
431;DHT22;202;48.764;9.172;2023-11-21T12:39:00;12.50;50.00
431;DHT22;202;48.764;9.172;2023-11-21T12:41:41;12.50;49.30
431;DHT22;202;48.764;9.172;2023-11-21T12:44:21;12.50;50.80
431;DHT22;202;48.764;9.172;2023-11-21T12:46:58;12.50;50.70
431;DHT22;202;48.764;9.172;2023-11-21T12:49:32;12.50;51.80
431;DHT22;202;48.764;9.172;2023-11-21T12:52:11;12.40;51.40
431;DHT22;202;48.764;9.172;2023-11-21T12:58:20;12.20;51.70
431;DHT22;202;48.764;9.172;2023-11-21T13:04:16;11.90;53.70
431;DHT22;202;48.764;9.172;2023-11-21T13:06:50;11.90;52.50
431;DHT22;202;48.764;9.172;2023-11-21T13:10:06;11.90;53.30
431;DHT22;202;48.764;9.172;2023-11-21T13:13:28;12.10;51.90
431;DHT22;202;48.764;9.172;2023-11-21T13:16:26;12.00;51.00
431;DHT22;202;48.764;9.172;2023-11-21T13:19:49;12.10;51.40
431;DHT22;202;48.764;9.172;2023-11-21T13:42:40;11.80;51.80
431;DHT22;202;48.764;9.172;2023-11-21T13:45:50;11.80;52.80
431;DHT22;202;48.764;9.172;2023-11-21T14:21:49;11.70;59.40
431;DHT22;202;48.764;9.172;2023-11-21T14:27:34;11.70;59.50
431;DHT22;202;48.764;9.172;2023-11-21T14:30:02;11.60;60.00
431;DHT22;202;48.764;9.172;2023-11-21T15:02:45;11.40;61.30
431;DHT22;202;48.764;9.172;2023-11-21T15:05:20;11.40;61.60
431;DHT22;202;48.764;9.172;2023-11-21T15:07:58;11.50;61.50
431;DHT22;202;48.764;9.172;2023-11-21T15:14:24;11.50;60.80
431;DHT22;202;48.764;9.172;2023-11-21T15:17:13;11.50;60.70
431;DHT22;202;48.764;9.172;2023-11-21T15:19:57;11.50;60.50
431;DHT22;202;48.764;9.172;2023-11-21T15:36:16;11.50;61.00
431;DHT22;202;48.764;9.172;2023-11-21T15:38:45;11.60;60.10
431;DHT22;202;48.764;9.172;2023-11-21T15:41:11;11.60;59.70
431;DHT22;202;48.764;9.172;2023-11-21T15:43:38;11.60;59.40
431;DHT22;202;48.764;9.172;2023-11-21T15:46:05;11.60;59.40
431;DHT22;202;48.764;9.172;2023-11-21T15:48:33;11.60;59.40
431;DHT22;202;48.764;9.172;2023-11-21T15:51:01;11.60;59.40
431;DHT22;202;48.764;9.172;2023-11-21T15:53:31;11.60;58.80
431;DHT22;202;48.764;9.172;2023-11-21T15:55:58;11.50;59.30
431;DHT22;202;48.764;9.172;2023-11-21T15:58:26;11.50;59.30
431;DHT22;202;48.764;9.172;2023-11-21T16:00:53;11.50;59.30
431;DHT22;202;48.764;9.172;2023-11-21T16:03:20;11.40;58.50
431;DHT22;202;48.764;9.172;2023-11-21T16:05:47;11.40;58.80
431;DHT22;202;48.764;9.172;2023-11-21T16:08:30;11.40;59.20
431;DHT22;202;48.764;9.172;2023-11-21T16:11:18;11.40;59.00
431;DHT22;202;48.764;9.172;2023-11-21T16:17:00;11.30;59.80
431;DHT22;202;48.764;9.172;2023-11-21T16:20:09;11.40;59.80
431;DHT22;202;48.764;9.172;2023-11-21T16:23:34;11.30;59.20
431;DHT22;202;48.764;9.172;2023-11-21T16:33:54;11.30;59.20
431;DHT22;202;48.764;9.172;2023-11-21T16:40:00;11.20;59.60
431;DHT22;202;48.764;9.172;2023-11-21T16:43:08;11.20;59.10
431;DHT22;202;48.764;9.172;2023-11-21T17:00:14;11.20;58.00
431;DHT22;202;48.764;9.172;2023-11-21T17:21:36;11.10;58.70
431;DHT22;202;48.764;9.172;2023-11-21T17:24:18;11.10;59.00
431;DHT22;202;48.764;9.172;2023-11-21T18:07:59;10.80;60.60
431;DHT22;202;48.764;9.172;2023-11-21T18:11:17;10.90;60.70
431;DHT22;202;48.764;9.172;2023-11-21T18:14:25;10.90;60.00
431;DHT22;202;48.764;9.172;2023-11-21T18:27:19;10.80;60.50
431;DHT22;202;48.764;9.172;2023-11-21T18:30:01;10.80;58.70
431;DHT22;202;48.764;9.172;2023-11-21T18:32:59;10.80;59.40
431;DHT22;202;48.764;9.172;2023-11-21T18:39:17;10.70;60.70
431;DHT22;202;48.764;9.172;2023-11-21T18:42:12;10.80;61.10
431;DHT22;202;48.764;9.172;2023-11-21T18:45:17;10.70;60.00
431;DHT22;202;48.764;9.172;2023-11-21T18:47:57;10.80;60.40
431;DHT22;202;48.764;9.172;2023-11-21T18:50:35;10.90;61.10
431;DHT22;202;48.764;9.172;2023-11-21T18:53:19;10.90;58.90
431;DHT22;202;48.764;9.172;2023-11-21T18:56:00;10.90;59.60
431;DHT22;202;48.764;9.172;2023-11-21T18:58:47;10.80;58.70
431;DHT22;202;48.764;9.172;2023-11-21T19:11:35;10.60;60.40
431;DHT22;202;48.764;9.172;2023-11-21T19:14:36;10.60;62.20
431;DHT22;202;48.764;9.172;2023-11-21T19:17:15;10.60;62.40
431;DHT22;202;48.764;9.172;2023-11-21T19:19:52;10.70;62.70
431;DHT22;202;48.764;9.172;2023-11-21T19:22:38;10.80;62.70
431;DHT22;202;48.764;9.172;2023-11-21T19:28:21;10.80;59.10
431;DHT22;202;48.764;9.172;2023-11-21T19:31:17;10.70;62.10
431;DHT22;202;48.764;9.172;2023-11-21T19:34:14;10.80;61.30
431;DHT22;202;48.764;9.172;2023-11-21T19:36:48;10.90;61.70
431;DHT22;202;48.764;9.172;2023-11-21T19:40:08;10.90;60.90
431;DHT22;202;48.764;9.172;2023-11-21T19:43:09;10.80;59.80
431;DHT22;202;48.764;9.172;2023-11-21T19:46:18;10.90;59.00
431;DHT22;202;48.764;9.172;2023-11-21T19:52:44;10.80;59.70
431;DHT22;202;48.764;9.172;2023-11-21T19:55:46;10.80;59.80
431;DHT22;202;48.764;9.172;2023-11-21T19:59:00;10.90;58.80
431;DHT22;202;48.764;9.172;2023-11-21T20:01:50;10.80;60.00
431;DHT22;202;48.764;9.172;2023-11-21T20:07:38;10.70;58.60
431;DHT22;202;48.764;9.172;2023-11-21T20:10:42;10.70;58.60
431;DHT22;202;48.764;9.172;2023-11-21T20:14:22;10.70;58.60
431;DHT22;202;48.764;9.172;2023-11-21T20:16:48;10.70;57.10
431;DHT22;202;48.764;9.172;2023-11-21T20:26:33;10.50;59.90
431;DHT22;202;48.764;9.172;2023-11-21T20:29:18;10.60;60.00
431;DHT22;202;48.764;9.172;2023-11-21T20:32:19;10.50;59.50
431;DHT22;202;48.764;9.172;2023-11-21T20:40:53;10.60;58.50
431;DHT22;202;48.764;9.172;2023-11-21T20:51:03;10.40;58.40
431;DHT22;202;48.764;9.172;2023-11-21T20:54:06;10.40;58.30
431;DHT22;202;48.764;9.172;2023-11-21T21:15:16;10.30;57.50
431;DHT22;202;48.764;9.172;2023-11-21T21:24:35;10.30;60.70
431;DHT22;202;48.764;9.172;2023-11-21T21:27:09;10.50;59.50
431;DHT22;202;48.764;9.172;2023-11-21T21:29:52;10.50;58.90
431;DHT22;202;48.764;9.172;2023-11-21T21:33:11;10.50;58.50
431;DHT22;202;48.764;9.172;2023-11-21T21:36:05;10.60;57.70
431;DHT22;202;48.764;9.172;2023-11-21T21:38:56;10.40;57.00
431;DHT22;202;48.764;9.172;2023-11-21T21:41:50;10.50;56.80
431;DHT22;202;48.764;9.172;2023-11-21T21:48:10;10.20;57.10
431;DHT22;202;48.764;9.172;2023-11-21T21:51:14;10.20;59.40
431;DHT22;202;48.764;9.172;2023-11-21T21:54:20;10.20;59.30
431;DHT22;202;48.764;9.172;2023-11-21T21:57:17;10.30;59.80
431;DHT22;202;48.764;9.172;2023-11-21T22:00:30;10.40;58.40
431;DHT22;202;48.764;9.172;2023-11-21T22:03:52;10.40;58.30
431;DHT22;202;48.764;9.172;2023-11-21T22:06:30;10.40;58.00
431;DHT22;202;48.764;9.172;2023-11-21T22:09:42;10.50;57.40
431;DHT22;202;48.764;9.172;2023-11-21T22:12:59;10.50;58.20
431;DHT22;202;48.764;9.172;2023-11-21T22:15:49;10.50;58.50
431;DHT22;202;48.764;9.172;2023-11-21T22:18:39;10.50;58.50
431;DHT22;202;48.764;9.172;2023-11-21T22:21:46;10.50;58.00
431;DHT22;202;48.764;9.172;2023-11-21T22:25:21;10.40;58.40
431;DHT22;202;48.764;9.172;2023-11-21T22:30:55;10.30;58.30
431;DHT22;202;48.764;9.172;2023-11-21T22:31:25;10.30;59.20
431;DHT22;202;48.764;9.172;2023-11-21T22:34:16;10.40;59.80
431;DHT22;202;48.764;9.172;2023-11-21T22:36:52;10.40;58.40
431;DHT22;202;48.764;9.172;2023-11-21T22:39:19;10.40;58.10
431;DHT22;202;48.764;9.172;2023-11-21T22:41:49;10.40;58.40
431;DHT22;202;48.764;9.172;2023-11-21T22:44:16;10.40;58.70
431;DHT22;202;48.764;9.172;2023-11-21T22:46:44;10.40;58.40
431;DHT22;202;48.764;9.172;2023-11-21T22:49:15;10.40;57.70
431;DHT22;202;48.764;9.172;2023-11-21T22:52:18;10.50;57.70
431;DHT22;202;48.764;9.172;2023-11-21T22:54:40;10.40;58.40
431;DHT22;202;48.764;9.172;2023-11-21T22:57:11;10.40;57.50
431;DHT22;202;48.764;9.172;2023-11-21T23:01:08;10.40;57.90
431;DHT22;202;48.764;9.172;2023-11-21T23:14:11;10.30;58.20
431;DHT22;202;48.764;9.172;2023-11-21T23:17:24;10.30;58.30
431;DHT22;202;48.764;9.172;2023-11-21T23:37:54;10.40;59.90
431;DHT22;202;48.764;9.172;2023-11-21T23:40:39;10.50;60.40
431;DHT22;202;48.764;9.172;2023-11-21T23:43:28;10.50;59.70
431;DHT22;202;48.764;9.172;2023-11-21T23:46:34;10.40;59.80
431;DHT22;202;48.764;9.172;2023-11-21T23:56:19;10.40;59.80
